createdAt,value
2022-11-29T00:02:07.070Z,98250.00
2022-11-29T00:04:33.731Z,98256.81
2022-11-29T00:07:00.144Z,98244.94
2022-11-29T00:09:27.430Z,98248.03
2022-11-29T00:12:12.233Z,98250.41
2022-11-29T00:14:39.773Z,98256.56
2022-11-29T00:17:06.593Z,98253.75
2022-11-29T00:19:35.600Z,98255.56
2022-11-29T00:22:02.652Z,98249.59
2022-11-29T00:24:31.578Z,98254.88
2022-11-29T00:26:58.309Z,98254.75
2022-11-29T00:29:25.483Z,98250.97
2022-11-29T00:31:51.892Z,98256.41
2022-11-29T00:34:20.546Z,98258.78
2022-11-29T00:36:47.248Z,98253.47
2022-11-29T00:39:13.792Z,98254.34
2022-11-29T00:41:40.411Z,98254.88
2022-11-29T00:44:06.923Z,98257.00
2022-11-29T00:46:33.717Z,98252.38
2022-11-29T00:49:00.211Z,98261.03
2022-11-29T00:51:26.718Z,98259.22
2022-11-29T00:53:53.135Z,98261.16
2022-11-29T00:56:19.668Z,98258.09
2022-11-29T00:58:46.252Z,98255.56
2022-11-29T01:01:12.735Z,98252.25
2022-11-29T01:03:39.412Z,98258.66
2022-11-29T01:06:09.897Z,98260.59
2022-11-29T01:08:42.242Z,98255.56
2022-11-29T01:11:13.905Z,98258.78
2022-11-29T01:13:41.157Z,98266.72
2022-11-29T01:16:08.405Z,98266.19
2022-11-29T01:18:35.465Z,98260.88
2022-11-29T01:21:08.986Z,98269.53
2022-11-29T01:23:36.052Z,98269.25
2022-11-29T01:26:06.177Z,98268.28
2022-11-29T01:28:34.032Z,98268.53
2022-11-29T01:31:09.046Z,98275.00
2022-11-29T01:33:36.234Z,98277.22
2022-11-29T01:36:04.486Z,98273.84
2022-11-29T01:38:30.929Z,98274.81
2022-11-29T01:41:09.512Z,98275.38
2022-11-29T01:44:13.094Z,98280.53
2022-11-29T01:46:45.454Z,98281.25
2022-11-29T01:49:16.488Z,98280.22
2022-11-29T01:51:52.415Z,98287.09
2022-11-29T01:54:20.152Z,98287.94
2022-11-29T01:56:50.239Z,98290.19
2022-11-29T01:59:20.722Z,98283.06
2022-11-29T02:01:47.680Z,98281.09
2022-11-29T02:04:15.302Z,98274.56
2022-11-29T02:06:42.862Z,98278.19
2022-11-29T02:09:19.606Z,98277.22
2022-11-29T02:11:57.700Z,98273.00
2022-11-29T02:14:38.263Z,98275.81
2022-11-29T02:17:36.964Z,98272.03
2022-11-29T02:20:51.402Z,98282.63
2022-11-29T02:23:50.924Z,98285.41
2022-11-29T02:26:39.171Z,98275.91
2022-11-29T02:29:36.721Z,98287.63
2022-11-29T02:32:20.572Z,98288.72
2022-11-29T02:35:02.131Z,98285.38
2022-11-29T02:37:38.510Z,98281.44
2022-11-29T02:40:24.875Z,98288.41
2022-11-29T02:43:06.513Z,98285.47
2022-11-29T02:46:03.216Z,98279.47
2022-11-29T02:48:44.680Z,98286.97
2022-11-29T02:51:22.499Z,98282.38
2022-11-29T02:53:55.938Z,98281.81
2022-11-29T02:56:52.185Z,98285.88
2022-11-29T02:59:32.594Z,98282.25
2022-11-29T03:02:14.565Z,98286.88
2022-11-29T03:04:50.089Z,98282.28
2022-11-29T03:07:37.899Z,98290.09
2022-11-29T03:10:36.392Z,98291.66
2022-11-29T03:13:08.470Z,98295.97
2022-11-29T03:15:50.748Z,98304.75
2022-11-29T03:18:34.724Z,98299.19
2022-11-29T03:21:34.543Z,98300.88
2022-11-29T03:24:13.740Z,98303.66
2022-11-29T03:26:45.574Z,98301.84
2022-11-29T03:29:23.019Z,98298.09
2022-11-29T03:31:49.617Z,98300.88
2022-11-29T03:34:31.820Z,98308.00
2022-11-29T03:37:06.993Z,98310.63
2022-11-29T03:39:38.132Z,98313.28
2022-11-29T03:42:11.024Z,98318.97
2022-11-29T03:44:50.147Z,98320.66
2022-11-29T03:47:23.657Z,98325.81
2022-11-29T03:50:01.550Z,98324.56
2022-11-29T03:52:43.157Z,98320.94
2022-11-29T03:55:21.774Z,98326.41
2022-11-29T03:58:00.295Z,98325.25
2022-11-29T04:00:34.027Z,98322.31
2022-11-29T04:03:37.742Z,98327.50
2022-11-29T04:06:19.502Z,98321.94
2022-11-29T04:08:57.326Z,98319.72
2022-11-29T04:11:35.690Z,98322.50
2022-11-29T04:14:08.055Z,98317.06
2022-11-29T04:16:54.481Z,98317.84
2022-11-29T04:19:58.284Z,98320.69
2022-11-29T04:22:54.523Z,98317.91
2022-11-29T04:25:39.759Z,98322.63
2022-11-29T04:28:12.140Z,98329.75
2022-11-29T04:31:14.899Z,98329.75
2022-11-29T04:33:53.504Z,98329.88
2022-11-29T04:36:48.735Z,98331.41
2022-11-29T04:39:26.068Z,98334.50
2022-11-29T04:42:20.098Z,98338.41
2022-11-29T04:44:55.760Z,98338.38
2022-11-29T04:48:02.910Z,98345.09
2022-11-29T04:50:39.301Z,98341.59
2022-11-29T04:53:40.943Z,98346.75
2022-11-29T04:56:21.441Z,98350.25
2022-11-29T04:58:59.190Z,98354.56
2022-11-29T05:01:53.816Z,98355.16
2022-11-29T05:04:43.737Z,98361.44
2022-11-29T05:07:39.515Z,98361.16
2022-11-29T05:10:05.930Z,98362.56
2022-11-29T05:12:53.530Z,98367.88
2022-11-29T05:15:56.851Z,98371.91
2022-11-29T05:18:45.120Z,98370.53
2022-11-29T05:21:27.343Z,98370.28
2022-11-29T05:23:53.756Z,98371.91
2022-11-29T05:26:32.375Z,98379.97
2022-11-29T05:29:05.696Z,98377.75
2022-11-29T05:31:41.458Z,98387.81
2022-11-29T05:34:34.856Z,98389.06
2022-11-29T05:37:35.245Z,98390.75
2022-11-29T05:40:39.388Z,98379.16
2022-11-29T05:43:34.703Z,98388.78
2022-11-29T05:46:19.588Z,98383.94
2022-11-29T05:49:17.888Z,98398.72
2022-11-29T05:52:15.047Z,98393.75
2022-11-29T05:54:58.994Z,98402.53
2022-11-29T05:57:57.537Z,98400.31
2022-11-29T06:00:26.856Z,98391.66
2022-11-29T06:03:03.710Z,98402.94
2022-11-29T06:05:42.781Z,98402.94
2022-11-29T06:08:31.625Z,98409.38
2022-11-29T06:11:21.723Z,98410.22
2022-11-29T06:14:20.589Z,98412.31
2022-11-29T06:17:11.789Z,98412.56
2022-11-29T06:20:11.057Z,98410.06
2022-11-29T06:22:48.903Z,98410.75
2022-11-29T06:25:48.418Z,98413.53
2022-11-29T06:28:49.902Z,98418.44
2022-11-29T06:31:27.012Z,98419.69
2022-11-29T06:34:00.881Z,98420.50
2022-11-29T06:36:36.203Z,98424.44
2022-11-29T06:39:02.959Z,98418.31
2022-11-29T06:41:29.705Z,98417.78
2022-11-29T06:43:56.669Z,98422.41
2022-11-29T06:46:26.655Z,98424.75
2022-11-29T06:49:19.300Z,98431.16
2022-11-29T06:52:12.192Z,98428.91
2022-11-29T06:55:01.334Z,98431.81
2022-11-29T06:57:53.844Z,98430.88
2022-11-29T07:00:46.572Z,98439.75
2022-11-29T07:03:18.918Z,98443.41
2022-11-29T07:05:46.521Z,98447.72
2022-11-29T07:08:19.021Z,98445.22
2022-11-29T07:10:49.661Z,98452.50
2022-11-29T07:13:17.872Z,98450.69
2022-11-29T07:16:06.765Z,98450.81
2022-11-29T07:18:44.643Z,98450.19
2022-11-29T07:21:32.545Z,98455.66
2022-11-29T07:24:37.336Z,98454.81
2022-11-29T07:27:26.494Z,98459.06
2022-11-29T07:30:09.604Z,98455.59
2022-11-29T07:33:05.529Z,98464.81
2022-11-29T07:35:46.198Z,98456.84
2022-11-29T07:38:27.061Z,98466.78
2022-11-29T07:41:26.979Z,98469.16
2022-11-29T07:44:05.326Z,98470.72
2022-11-29T07:46:32.130Z,98476.88
2022-11-29T07:48:58.553Z,98477.19
2022-11-29T07:51:25.731Z,98472.75
2022-11-29T07:53:52.218Z,98473.19
2022-11-29T07:56:18.703Z,98482.69
2022-11-29T07:58:45.311Z,98476.84
2022-11-29T08:01:11.901Z,98486.09
2022-11-29T08:03:38.473Z,98474.91
2022-11-29T08:06:05.046Z,98489.72
2022-11-29T08:08:31.579Z,98487.94
2022-11-29T08:10:58.012Z,98487.53
2022-11-29T08:13:24.596Z,98487.94
2022-11-29T08:15:51.062Z,98493.25
2022-11-29T08:18:17.771Z,98498.03
2022-11-29T08:20:46.250Z,98498.88
2022-11-29T08:23:13.765Z,98498.47
2022-11-29T08:25:40.316Z,98499.75
2022-11-29T08:28:06.877Z,98506.88
2022-11-29T08:30:33.560Z,98512.88
2022-11-29T08:33:00.234Z,98514.41
2022-11-29T08:35:26.764Z,98512.59
2022-11-29T08:37:54.052Z,98519.31
2022-11-29T08:40:20.429Z,98520.16
2022-11-29T08:42:46.982Z,98522.81
2022-11-29T08:45:14.738Z,98526.59
2022-11-29T08:47:42.328Z,98518.06
2022-11-29T08:50:15.824Z,98525.06
2022-11-29T08:53:06.508Z,98531.91
2022-11-29T08:55:39.974Z,98533.03
2022-11-29T08:58:08.950Z,98529.16
2022-11-29T09:00:36.788Z,98532.66
2022-11-29T09:03:23.425Z,98536.72
2022-11-29T09:05:50.296Z,98541.72
2022-11-29T09:08:16.973Z,98550.28
2022-11-29T09:10:43.786Z,98549.03
2022-11-29T09:13:11.074Z,98543.72
2022-11-29T09:15:39.241Z,98559.50
2022-11-29T09:18:05.994Z,98556.03
2022-11-29T09:20:33.300Z,98560.63
2022-11-29T09:23:00.559Z,98566.81
2022-11-29T09:25:27.652Z,98563.84
2022-11-29T09:27:54.493Z,98562.03
2022-11-29T09:30:23.777Z,98566.91
2022-11-29T09:32:50.521Z,98568.03
2022-11-29T09:35:17.565Z,98568.03
2022-11-29T09:37:44.102Z,98577.84
2022-11-29T09:40:37.427Z,98578.56
2022-11-29T09:43:23.659Z,98578.81
2022-11-29T09:46:03.076Z,98584.53
2022-11-29T09:48:44.735Z,98578.25
2022-11-29T09:51:28.007Z,98580.09
2022-11-29T09:54:46.050Z,98585.25
2022-11-29T09:57:14.151Z,98580.09
2022-11-29T09:59:48.697Z,98583.88
2022-11-29T10:02:21.803Z,98585.69
2022-11-29T10:05:01.472Z,98589.72
2022-11-29T10:07:46.288Z,98592.69
2022-11-29T10:10:22.788Z,98591.44
2022-11-29T10:12:56.455Z,98598.13
2022-11-29T10:15:27.787Z,98595.63
2022-11-29T10:18:03.270Z,98599.38
2022-11-29T10:20:39.164Z,98590.31
2022-11-29T10:23:21.160Z,98600.66
2022-11-29T10:25:50.448Z,98597.44
2022-11-29T10:28:20.833Z,98593.81
2022-11-29T10:30:48.168Z,98585.09
2022-11-29T10:33:26.953Z,98592.50
2022-11-29T10:35:59.087Z,98594.63
2022-11-29T10:38:33.019Z,98595.31
2022-11-29T10:41:13.474Z,98597.00
2022-11-29T10:43:43.086Z,98591.81
2022-11-29T10:46:18.262Z,98594.78
2022-11-29T10:48:44.726Z,98589.47
2022-11-29T10:51:18.124Z,98596.19
2022-11-29T10:53:46.652Z,98594.78
2022-11-29T10:56:31.121Z,98597.00
2022-11-29T10:59:00.301Z,98597.00
2022-11-29T11:01:28.994Z,98591.69
2022-11-29T11:03:57.853Z,98589.19
2022-11-29T11:06:42.446Z,98596.19
2022-11-29T11:09:24.903Z,98594.78
2022-11-29T11:11:57.811Z,98592.69
2022-11-29T11:14:28.795Z,98589.06
2022-11-29T11:16:55.594Z,98594.22
2022-11-29T11:19:28.434Z,98588.34
2022-11-29T11:21:56.972Z,98597.13
2022-11-29T11:24:41.940Z,98589.25
2022-11-29T11:27:08.455Z,98591.34
2022-11-29T11:29:40.990Z,98593.00
2022-11-29T11:32:19.462Z,98595.25
2022-11-29T11:34:58.066Z,98607.28
2022-11-29T11:37:30.218Z,98603.75
2022-11-29T11:40:00.243Z,98603.59
2022-11-29T11:42:40.332Z,98607.66
2022-11-29T11:45:10.134Z,98611.00
2022-11-29T11:47:42.822Z,98617.03
2022-11-29T11:50:36.931Z,98612.97
2022-11-29T11:53:06.967Z,98613.78
2022-11-29T11:55:37.695Z,98611.56
2022-11-29T11:58:13.058Z,98616.78
2022-11-29T12:01:04.809Z,98608.53
2022-11-29T12:03:45.749Z,98623.69
2022-11-29T12:06:31.706Z,98620.47
2022-11-29T12:09:33.468Z,98624.94
2022-11-29T12:12:25.333Z,98629.47
2022-11-29T12:15:04.038Z,98630.56
2022-11-29T12:18:13.577Z,98625.13
2022-11-29T12:21:03.460Z,98628.09
2022-11-29T12:23:45.062Z,98632.53
2022-11-29T12:26:13.707Z,98629.31
2022-11-29T12:28:46.607Z,98633.25
2022-11-29T12:31:16.214Z,98635.78
2022-11-29T12:33:57.856Z,98635.63
2022-11-29T12:36:43.672Z,98632.53
2022-11-29T12:39:23.717Z,98635.47
2022-11-29T12:42:06.771Z,98639.84
2022-11-29T12:44:52.619Z,98639.84
2022-11-29T12:47:38.162Z,98644.28
2022-11-29T12:50:46.586Z,98637.72
2022-11-29T12:53:28.281Z,98645.28
2022-11-29T12:56:16.242Z,98643.56
2022-11-29T12:58:49.839Z,98638.81
2022-11-29T13:01:51.201Z,98642.88
2022-11-29T13:04:29.601Z,98638.00
2022-11-29T13:07:03.275Z,98647.66
2022-11-29T13:09:50.790Z,98648.91
2022-11-29T13:12:36.573Z,98648.47
2022-11-29T13:15:35.535Z,98652.28
2022-11-29T13:18:18.038Z,98653.81
2022-11-29T13:20:52.301Z,98655.50
2022-11-29T13:24:07.801Z,98650.34
2022-11-29T13:26:34.019Z,98652.16
2022-11-29T13:29:02.450Z,98646.84
2022-11-29T13:31:29.937Z,98654.81
2022-11-29T13:33:56.438Z,98651.88
2022-11-29T13:36:28.898Z,98649.63
2022-11-29T13:39:10.441Z,98650.03
2022-11-29T13:41:49.022Z,98648.06
2022-11-29T13:44:27.798Z,98652.28
2022-11-29T13:47:15.722Z,98649.03
2022-11-29T13:49:58.011Z,98652.09
2022-11-29T13:52:42.505Z,98654.22
2022-11-29T13:55:12.020Z,98663.72
2022-11-29T14:00:44.749Z,98666.91
2022-11-29T14:03:26.651Z,98676.03
2022-11-29T14:06:13.380Z,98674.47
2022-11-29T14:09:19.421Z,98677.81
2022-11-29T14:12:01.742Z,98681.91
2022-11-29T14:14:34.073Z,98680.22
2022-11-29T14:17:06.180Z,98677.97
2022-11-29T14:19:34.549Z,98678.69
2022-11-29T14:22:01.840Z,98691.03
2022-11-29T14:24:37.806Z,98688.22
2022-11-29T14:27:07.262Z,98682.06
2022-11-29T14:29:55.213Z,98686.38
2022-11-29T14:32:34.505Z,98689.34
2022-11-29T14:35:09.704Z,98688.97
2022-11-29T14:38:13.781Z,98695.69
2022-11-29T14:40:40.327Z,98690.22
2022-11-29T14:43:34.009Z,98690.22
2022-11-29T14:46:31.618Z,98695.00
2022-11-29T14:49:03.690Z,98701.31
2022-11-29T14:51:32.753Z,98704.50
2022-11-29T14:54:15.583Z,98697.53
2022-11-29T14:56:45.314Z,98709.00
2022-11-29T14:59:51.567Z,98697.78
2022-11-29T15:02:32.618Z,98701.97
2022-11-29T15:05:13.239Z,98715.94
2022-11-29T15:07:44.664Z,98706.03
2022-11-29T15:10:34.994Z,98715.38
2022-11-29T15:13:03.918Z,98709.22
2022-11-29T15:15:38.719Z,98712.25
2022-11-29T15:18:26.653Z,98713.91
2022-11-29T15:21:25.318Z,98705.84
2022-11-29T15:24:01.564Z,98716.03
2022-11-29T15:26:28.436Z,98708.31
2022-11-29T15:29:13.340Z,98717.94
2022-11-29T15:31:42.163Z,98719.22
2022-11-29T15:34:29.075Z,98714.56
2022-11-29T15:36:55.548Z,98726.50
2022-11-29T15:39:26.557Z,98729.53
2022-11-29T15:41:53.288Z,98726.53
2022-11-29T15:44:22.380Z,98729.69
2022-11-29T15:46:48.881Z,98731.50
2022-11-29T15:49:34.049Z,98730.78
2022-11-29T15:52:07.744Z,98741.38
2022-11-29T15:54:41.988Z,98742.50
2022-11-29T15:57:15.909Z,98753.34
2022-11-29T15:59:52.932Z,98753.66
2022-11-29T16:02:21.684Z,98745.28
2022-11-29T16:04:51.205Z,98748.22
2022-11-29T16:07:19.795Z,98748.84
2022-11-29T16:09:54.773Z,98742.50
2022-11-29T16:12:21.238Z,98757.34
2022-11-29T16:14:56.903Z,98753.66
2022-11-29T16:17:31.936Z,98745.47
2022-11-29T16:20:13.513Z,98750.69
2022-11-29T16:22:39.966Z,98742.44
2022-11-29T16:25:15.868Z,98758.09
2022-11-29T16:27:43.009Z,98758.50
2022-11-29T16:30:24.254Z,98754.69
2022-11-29T16:32:55.339Z,98758.34
2022-11-29T16:35:28.035Z,98758.84
2022-11-29T16:37:54.752Z,98763.03
2022-11-29T16:40:35.458Z,98760.16
2022-11-29T16:43:21.029Z,98762.44
2022-11-29T16:45:47.734Z,98764.47
2022-11-29T16:48:29.418Z,98762.22
2022-11-29T16:51:10.901Z,98761.38
2022-11-29T16:53:42.715Z,98761.19
2022-11-29T16:56:14.322Z,98768.31
2022-11-29T16:59:20.928Z,98768.94
2022-11-29T17:01:31.510Z,98769.28
2022-11-29T17:03:59.881Z,98773.28
2022-11-29T17:06:27.987Z,98775.81
2022-11-29T17:08:56.284Z,98777.50
2022-11-29T17:11:23.281Z,98781.25
2022-11-29T17:13:50.852Z,98781.47
2022-11-29T17:16:20.159Z,98784.34
2022-11-29T17:18:47.166Z,98784.47
2022-11-29T17:21:31.590Z,98786.28
2022-11-29T17:23:58.037Z,98782.81
2022-11-29T17:26:24.495Z,98789.41
2022-11-29T17:28:52.242Z,98784.59
2022-11-29T17:31:21.639Z,98784.59
2022-11-29T17:33:48.500Z,98796.88
2022-11-29T17:36:17.513Z,98789.66
2022-11-29T17:38:45.531Z,98793.13
2022-11-29T17:41:14.663Z,98792.53
2022-11-29T17:43:41.790Z,98800.38
2022-11-29T17:46:12.603Z,98794.22
2022-11-29T17:48:39.257Z,98803.72
2022-11-29T17:51:17.454Z,98801.69
2022-11-29T17:53:50.039Z,98800.47
2022-11-29T17:56:19.455Z,98803.59
2022-11-29T17:58:46.021Z,98796.63
2022-11-29T18:01:15.101Z,98807.19
2022-11-29T18:03:43.353Z,98813.31
2022-11-29T18:06:19.621Z,98808.72
2022-11-29T18:08:50.934Z,98818.00
2022-11-29T18:11:20.498Z,98815.13
2022-11-29T18:13:47.542Z,98819.00
2022-11-29T18:16:17.129Z,98822.47
2022-11-29T18:18:44.586Z,98827.19
2022-11-29T18:21:12.531Z,98827.66
2022-11-29T18:23:43.292Z,98826.97
2022-11-29T18:26:15.634Z,98824.81
2022-11-29T18:28:43.636Z,98824.81
2022-11-29T18:31:12.909Z,98829.28
2022-11-29T18:33:41.353Z,98823.25
2022-11-29T18:36:12.504Z,98833.38
2022-11-29T18:38:40.577Z,98828.31
2022-11-29T18:41:21.216Z,98836.72
2022-11-29T18:43:48.871Z,98830.47
2022-11-29T18:46:19.009Z,98833.59
2022-11-29T18:48:47.274Z,98839.38
2022-11-29T18:51:16.524Z,98843.84
2022-11-29T18:53:44.056Z,98839.88
2022-11-29T18:56:16.707Z,98850.00
2022-11-29T18:58:44.730Z,98855.28
2022-11-29T19:01:14.777Z,98840.97
2022-11-29T19:03:44.579Z,98858.91
2022-11-29T19:06:16.750Z,98852.28
2022-11-29T19:08:43.479Z,98850.69
2022-11-29T19:11:21.051Z,98850.13
2022-11-29T19:13:51.978Z,98843.50
2022-11-29T19:16:19.522Z,98845.78
2022-11-29T19:18:45.990Z,98851.31
2022-11-29T19:21:15.177Z,98849.16
2022-11-29T19:23:43.642Z,98856.38
2022-11-29T19:26:14.701Z,98859.41
2022-11-29T19:28:43.489Z,98862.03
2022-11-29T19:31:11.894Z,98857.22
2022-11-29T19:33:40.012Z,98848.56
2022-11-29T19:36:08.765Z,98862.28
2022-11-29T19:38:36.525Z,98865.00
2022-11-29T19:41:13.621Z,98869.22
2022-11-29T19:43:40.169Z,98864.41
2022-11-29T19:46:08.511Z,98876.69
2022-11-29T19:48:35.075Z,98861.41
2022-11-29T19:51:02.183Z,98866.50
2022-11-29T19:53:29.594Z,98866.97
2022-11-29T19:55:56.301Z,98870.56
2022-11-29T19:58:22.966Z,98871.91
2022-11-29T20:00:49.538Z,98870.09
2022-11-29T20:03:16.208Z,98876.59
2022-11-29T20:05:42.760Z,98885.88
2022-11-29T20:08:09.346Z,98878.91
2022-11-29T20:10:35.824Z,98875.28
2022-11-29T20:13:02.602Z,98888.66
2022-11-29T20:15:29.216Z,98888.06
2022-11-29T20:17:55.794Z,98885.88
2022-11-29T20:20:22.526Z,98876.47
2022-11-29T20:22:48.997Z,98888.63
2022-11-29T20:25:15.499Z,98883.69
2022-11-29T20:27:42.022Z,98884.53
2022-11-29T20:30:10.325Z,98876.22
2022-11-29T20:32:37.057Z,98882.63
2022-11-29T20:35:03.884Z,98882.50
2022-11-29T20:37:43.459Z,98886.31
2022-11-29T20:40:15.784Z,98888.91
2022-11-29T20:43:03.242Z,98886.03
2022-11-29T20:45:30.097Z,98892.69
2022-11-29T20:48:17.174Z,98884.06
2022-11-29T20:50:51.925Z,98886.84
2022-11-29T20:53:18.269Z,98882.25
2022-11-29T20:55:47.880Z,98891.84
2022-11-29T20:58:15.381Z,98885.69
2022-11-29T21:00:42.172Z,98888.22
2022-11-29T21:03:08.684Z,98894.50
2022-11-29T21:05:37.989Z,98899.28
2022-11-29T21:08:04.744Z,98893.22
2022-11-29T21:10:31.264Z,98906.53
2022-11-29T21:12:58.008Z,98903.03
2022-11-29T21:15:24.854Z,98900.41
2022-11-29T21:17:51.709Z,98893.09
2022-11-29T21:20:22.898Z,98888.19
2022-11-29T21:23:19.157Z,98895.78
2022-11-29T21:25:58.133Z,98893.63
2022-11-29T21:28:32.038Z,98901.75
2022-11-29T21:30:58.728Z,98899.88
2022-11-29T21:33:25.562Z,98900.63
2022-11-29T21:35:55.699Z,98904.34
2022-11-29T21:38:25.079Z,98909.41
2022-11-29T21:40:51.574Z,98908.13
2022-11-29T21:43:18.118Z,98911.50
2022-11-29T21:45:47.410Z,98902.97
2022-11-29T21:48:32.856Z,98912.59
2022-11-29T21:50:59.338Z,98914.78
2022-11-29T21:53:26.038Z,98911.13
2022-11-29T21:56:00.564Z,98912.94
2022-11-29T21:58:29.270Z,98906.59
2022-11-29T22:00:55.818Z,98908.25
2022-11-29T22:03:22.388Z,98919.09
2022-11-29T22:05:48.923Z,98915.66
2022-11-29T22:08:15.467Z,98910.63
2022-11-29T22:10:41.997Z,98913.00
2022-11-29T22:13:08.538Z,98909.91
2022-11-29T22:15:35.009Z,98906.00
2022-11-29T22:18:01.478Z,98902.38
2022-11-29T22:20:27.926Z,98918.97
2022-11-29T22:22:58.538Z,98914.84
2022-11-29T22:25:25.386Z,98910.97
2022-11-29T22:27:51.849Z,98912.63
2022-11-29T22:30:18.281Z,98907.59
2022-11-29T22:32:44.719Z,98904.72
2022-11-29T22:35:11.123Z,98901.75
2022-11-29T22:37:37.577Z,98905.09
2022-11-29T22:40:05.887Z,98906.81
2022-11-29T22:42:32.480Z,98901.75
2022-11-29T22:44:58.905Z,98914.47
2022-11-29T22:47:25.389Z,98906.25
2022-11-29T22:49:57.752Z,98914.75
2022-11-29T22:52:24.172Z,98916.72
2022-11-29T22:54:50.600Z,98909.22
2022-11-29T22:57:17.084Z,98914.06
2022-11-29T22:59:43.508Z,98915.38
2022-11-29T23:02:09.958Z,98911.53
2022-11-29T23:04:36.432Z,98910.47
2022-11-29T23:07:02.883Z,98902.75
2022-11-29T23:09:29.346Z,98916.00
2022-11-29T23:11:56.204Z,98907.16
2022-11-29T23:14:23.497Z,98910.63
2022-11-29T23:16:50.463Z,98909.75
2022-11-29T23:19:17.475Z,98915.53
2022-11-29T23:21:45.835Z,98926.84
2022-11-29T23:24:13.822Z,98927.38
2022-11-29T23:26:43.241Z,98938.78
2022-11-29T23:29:12.794Z,98936.13
2022-11-29T23:31:39.540Z,98936.66
2022-11-29T23:35:25.691Z,98937.03
2022-11-29T23:37:52.100Z,98934.41
2022-11-29T23:40:18.648Z,98932.38
2022-11-29T23:42:47.172Z,98934.81
2022-11-29T23:45:13.926Z,98935.00
2022-11-29T23:47:40.309Z,98941.84
2022-11-29T23:50:07.899Z,98939.06
2022-11-29T23:52:34.437Z,98938.59
2022-11-29T23:55:00.869Z,98935.22
2022-11-29T23:57:29.637Z,98941.31
2022-11-29T23:59:56.043Z,98936.44
